createdAt,value
2019-01-10T00:00:32.804Z,2.93
2019-01-10T00:02:59.427Z,2.43
2019-01-10T00:05:26.261Z,2.27
2019-01-10T00:07:52.951Z,2.10
2019-01-10T00:10:19.596Z,2.27
2019-01-10T00:12:46.266Z,2.50
2019-01-10T00:15:15.497Z,2.00
2019-01-10T00:17:42.063Z,2.30
2019-01-10T00:20:10.635Z,2.60
2019-01-10T00:22:37.376Z,2.70
2019-01-10T00:25:09.467Z,2.33
2019-01-10T00:27:36.089Z,2.07
2019-01-10T00:30:06.573Z,2.40
2019-01-10T00:32:33.563Z,2.83
2019-01-10T00:35:00.305Z,2.53
2019-01-10T00:37:26.706Z,2.60
2019-01-10T00:39:53.409Z,2.43
2019-01-10T00:42:20.033Z,2.00
2019-01-10T00:44:46.630Z,2.90
2019-01-10T00:47:13.158Z,2.33
2019-01-10T00:49:39.795Z,2.33
2019-01-10T00:52:06.585Z,2.57
2019-01-10T00:54:33.121Z,2.63
2019-01-10T00:56:59.648Z,3.67
2019-01-10T00:59:26.329Z,2.30
2019-01-10T01:01:52.995Z,2.63
2019-01-10T01:04:19.613Z,2.20
2019-01-10T01:06:46.333Z,2.70
2019-01-10T01:09:12.842Z,2.83
2019-01-10T01:11:39.525Z,2.40
2019-01-10T01:14:06.040Z,3.03
2019-01-10T01:16:32.738Z,3.20
2019-01-10T01:18:59.314Z,3.07
2019-01-10T01:21:26.015Z,2.10
2019-01-10T01:23:52.561Z,2.07
2019-01-10T01:26:19.375Z,2.10
2019-01-10T01:28:45.946Z,1.60
2019-01-10T01:31:12.502Z,2.20
2019-01-10T01:33:39.088Z,1.70
2019-01-10T01:36:06.330Z,1.50
2019-01-10T01:38:32.869Z,2.03
2019-01-10T01:40:59.576Z,1.80
2019-01-10T01:43:26.377Z,2.00
2019-01-10T01:45:53.417Z,1.60
2019-01-10T01:48:19.922Z,1.57
2019-01-10T01:50:46.451Z,1.80
2019-01-10T01:53:14.222Z,2.30
2019-01-10T01:55:40.950Z,2.83
2019-01-10T01:58:07.731Z,2.43
2019-01-10T02:00:34.642Z,2.60
2019-01-10T02:03:01.324Z,2.50
2019-01-10T02:05:27.880Z,2.73
2019-01-10T02:07:54.508Z,2.97
2019-01-10T02:10:23.577Z,2.77
2019-01-10T02:12:50.287Z,2.70
2019-01-10T02:15:17.269Z,2.30
2019-01-10T02:17:48.738Z,2.60
2019-01-10T02:20:12.704Z,2.93
2019-01-10T02:22:39.437Z,2.97
2019-01-10T02:25:08.586Z,2.83
2019-01-10T02:27:35.374Z,3.07
2019-01-10T02:30:05.199Z,3.10
2019-01-10T02:32:31.768Z,3.73
2019-01-10T02:34:58.345Z,3.40
2019-01-10T02:37:24.861Z,4.00
2019-01-10T02:39:51.533Z,3.67
2019-01-10T02:42:18.089Z,3.90
2019-01-10T02:44:44.767Z,3.50
2019-01-10T02:47:11.401Z,3.80
2019-01-10T02:49:38.177Z,3.70
2019-01-10T02:52:04.706Z,3.27
2019-01-10T02:54:31.226Z,4.07
2019-01-10T02:56:58.080Z,3.70
2019-01-10T02:59:24.701Z,3.70
2019-01-10T03:01:51.329Z,4.07
2019-01-10T03:04:18.897Z,3.13
2019-01-10T03:06:45.651Z,3.30
2019-01-10T03:09:12.368Z,2.73
2019-01-10T03:11:39.149Z,3.10
2019-01-10T03:14:05.794Z,3.00
2019-01-10T03:16:32.366Z,3.03
2019-01-10T03:18:58.892Z,3.10
2019-01-10T03:21:25.529Z,3.97
2019-01-10T03:23:52.100Z,3.07
2019-01-10T03:26:18.873Z,3.50
2019-01-10T03:28:45.499Z,3.30
2019-01-10T03:31:12.079Z,3.13
2019-01-10T03:33:38.773Z,4.10
2019-01-10T03:36:05.310Z,3.73
2019-01-10T03:38:31.879Z,3.80
2019-01-10T03:40:58.428Z,3.47
2019-01-10T03:43:24.998Z,3.00
2019-01-10T03:45:51.542Z,4.10
2019-01-10T03:48:18.123Z,4.03
2019-01-10T03:50:44.747Z,4.20
2019-01-10T03:53:11.290Z,3.50
2019-01-10T03:55:37.836Z,3.30
2019-01-10T03:58:04.379Z,3.40
2019-01-10T04:00:32.631Z,3.00
2019-01-10T04:02:59.245Z,3.23
2019-01-10T04:05:25.903Z,3.10
2019-01-10T04:07:52.430Z,3.10
2019-01-10T04:10:18.999Z,3.07
2019-01-10T04:12:45.626Z,2.70
2019-01-10T04:15:14.283Z,3.10
2019-01-10T04:17:40.906Z,2.60
2019-01-10T04:20:10.285Z,2.60
2019-01-10T04:22:36.689Z,2.70
2019-01-10T04:25:04.900Z,2.60
2019-01-10T04:27:31.405Z,2.90
2019-01-10T04:29:57.959Z,2.60
2019-01-10T04:32:24.580Z,2.87
2019-01-10T04:34:51.338Z,3.00
2019-01-10T04:37:17.954Z,2.50
2019-01-10T04:39:44.495Z,2.83
2019-01-10T04:42:11.046Z,2.53
2019-01-10T04:44:37.799Z,2.70
2019-01-10T04:47:04.453Z,2.30
2019-01-10T04:49:30.974Z,2.83
2019-01-10T04:51:57.624Z,2.77
2019-01-10T04:54:24.150Z,3.27
2019-01-10T04:56:50.720Z,2.60
2019-01-10T04:59:17.267Z,2.80
2019-01-10T05:01:43.822Z,3.13
2019-01-10T05:04:10.344Z,2.47
2019-01-10T05:06:37.894Z,2.30
2019-01-10T05:09:05.922Z,3.00
2019-01-10T05:11:32.563Z,3.07
2019-01-10T05:13:59.097Z,2.67
2019-01-10T05:16:25.738Z,2.50
2019-01-10T05:18:52.265Z,2.80
2019-01-10T05:21:18.917Z,2.43
2019-01-10T05:23:45.437Z,2.50
2019-01-10T05:26:12.092Z,3.23
2019-01-10T05:28:40.354Z,2.57
2019-01-10T05:31:07.008Z,2.63
2019-01-10T05:33:33.531Z,2.53
2019-01-10T05:36:00.377Z,3.17
2019-01-10T05:38:27.009Z,2.80
2019-01-10T05:40:53.807Z,2.73
2019-01-10T05:43:20.321Z,2.80
2019-01-10T05:45:46.880Z,2.93
2019-01-10T05:48:13.492Z,2.90
2019-01-10T05:50:40.049Z,3.43
2019-01-10T05:53:06.577Z,2.90
2019-01-10T05:55:33.131Z,2.93
2019-01-10T05:57:59.771Z,3.07
2019-01-10T06:00:27.091Z,3.17
2019-01-10T06:02:53.657Z,2.37
2019-01-10T06:05:20.537Z,2.57
2019-01-10T06:07:47.046Z,2.73
2019-01-10T06:10:17.186Z,3.10
2019-01-10T06:12:43.835Z,2.70
2019-01-10T06:15:12.985Z,2.40
2019-01-10T06:17:40.128Z,2.63
2019-01-10T06:20:09.954Z,2.30
2019-01-10T06:22:36.720Z,2.23
2019-01-10T06:25:03.546Z,1.93
2019-01-10T06:27:30.191Z,2.37
2019-01-10T06:29:56.744Z,2.37
2019-01-10T06:32:23.398Z,2.07
2019-01-10T06:34:49.928Z,2.03
2019-01-10T06:37:16.491Z,1.90
2019-01-10T06:39:43.014Z,1.73
2019-01-10T06:42:09.629Z,1.50
2019-01-10T06:44:44.338Z,1.40
2019-01-10T06:47:04.612Z,1.60
2019-01-10T06:49:31.132Z,3.10
2019-01-10T06:51:57.687Z,1.73
2019-01-10T06:54:24.216Z,1.77
2019-01-10T06:56:50.784Z,1.80
2019-01-10T06:59:17.316Z,1.83
2019-01-10T07:01:43.971Z,1.73
2019-01-10T07:04:10.493Z,2.20
2019-01-10T07:06:37.792Z,2.20
2019-01-10T07:09:06.489Z,1.90
2019-01-10T07:11:33.068Z,1.80
2019-01-10T07:13:59.694Z,1.70
2019-01-10T07:16:26.338Z,2.40
2019-01-10T07:18:53.058Z,2.23
2019-01-10T07:21:19.713Z,2.00
2019-01-10T07:23:46.445Z,2.43
2019-01-10T07:26:14.062Z,2.03
2019-01-10T07:28:40.884Z,2.07
2019-01-10T07:31:10.537Z,2.00
2019-01-10T07:33:37.169Z,2.53
2019-01-10T07:36:03.993Z,1.93
2019-01-10T07:38:30.544Z,1.90
2019-01-10T07:40:57.158Z,2.20
2019-01-10T07:43:23.716Z,2.00
2019-01-10T07:45:50.354Z,3.17
2019-01-10T07:48:17.009Z,2.40
2019-01-10T07:50:43.766Z,2.30
2019-01-10T07:53:10.510Z,1.97
2019-01-10T07:55:37.133Z,1.90
2019-01-10T07:58:03.995Z,2.33
2019-01-10T08:00:30.613Z,2.20
2019-01-10T08:02:57.160Z,2.50
2019-01-10T08:05:23.884Z,2.27
2019-01-10T08:07:50.541Z,2.40
2019-01-10T08:10:17.168Z,2.20
2019-01-10T08:12:44.121Z,2.23
2019-01-10T08:15:14.042Z,2.10
2019-01-10T08:17:40.600Z,2.50
2019-01-10T08:20:07.732Z,2.13
2019-01-10T08:22:34.707Z,1.97
2019-01-10T08:25:01.762Z,2.07
2019-01-10T08:27:28.393Z,1.83
2019-01-10T08:29:54.915Z,2.60
2019-01-10T08:32:21.474Z,2.10
2019-01-10T08:34:48.109Z,2.27
2019-01-10T08:37:14.751Z,1.83
2019-01-10T08:39:41.369Z,1.80
2019-01-10T08:42:07.888Z,2.33
2019-01-10T08:44:34.498Z,1.83
2019-01-10T08:47:01.076Z,1.73
2019-01-10T08:49:27.700Z,1.93
2019-01-10T08:51:54.233Z,2.43
2019-01-10T08:54:20.988Z,2.00
2019-01-10T08:56:47.514Z,2.30
2019-01-10T08:59:14.182Z,2.40
2019-01-10T09:01:40.813Z,3.07
2019-01-10T09:04:07.367Z,2.90
2019-01-10T09:06:33.893Z,2.90
2019-01-10T09:09:01.206Z,2.87
2019-01-10T09:11:27.895Z,2.93
2019-01-10T09:13:54.452Z,2.90
2019-01-10T09:16:21.089Z,2.33
2019-01-10T09:18:47.745Z,2.67
2019-01-10T09:21:14.366Z,2.20
2019-01-10T09:23:40.921Z,2.20
2019-01-10T09:26:07.438Z,2.47
2019-01-10T09:28:34.101Z,2.80
2019-01-10T09:31:00.834Z,2.90
2019-01-10T09:33:27.616Z,2.97
2019-01-10T09:35:54.308Z,3.00
2019-01-10T09:38:21.053Z,3.10
2019-01-10T09:40:47.782Z,4.00
2019-01-10T09:43:14.325Z,3.50
2019-01-10T09:45:43.394Z,2.77
2019-01-10T09:48:09.298Z,3.13
2019-01-10T09:50:36.027Z,2.33
2019-01-10T09:53:02.877Z,2.43
2019-01-10T09:55:29.402Z,2.33
2019-01-10T09:57:56.048Z,2.40
2019-01-10T10:00:26.238Z,2.33
2019-01-10T10:02:52.752Z,2.10
2019-01-10T10:05:19.704Z,2.33
2019-01-10T10:07:46.433Z,2.20
2019-01-10T10:10:17.698Z,1.87
2019-01-10T10:12:44.819Z,1.90
2019-01-10T10:15:12.790Z,2.27
2019-01-10T10:17:39.405Z,2.90
2019-01-10T10:20:17.962Z,2.40
2019-01-10T10:22:44.804Z,2.60
2019-01-10T10:25:11.665Z,1.90
2019-01-10T10:27:38.276Z,2.40
2019-01-10T10:30:08.739Z,2.03
2019-01-10T10:32:35.364Z,2.20
2019-01-10T10:35:03.524Z,2.10
2019-01-10T10:37:30.142Z,2.20
2019-01-10T10:39:56.802Z,2.20
2019-01-10T10:42:23.526Z,2.30
2019-01-10T10:44:50.182Z,1.83
2019-01-10T10:47:16.696Z,1.60
2019-01-10T10:49:43.447Z,1.90
2019-01-10T10:52:10.189Z,2.10
2019-01-10T10:54:36.836Z,1.60
2019-01-10T10:57:03.614Z,1.83
2019-01-10T10:59:30.281Z,1.63
2019-01-10T11:01:56.904Z,1.40
2019-01-10T11:04:23.774Z,1.50
2019-01-10T11:06:50.429Z,1.47
2019-01-10T11:09:17.082Z,1.90
2019-01-10T11:11:43.812Z,1.33
2019-01-10T11:14:10.562Z,1.67
2019-01-10T11:16:38.505Z,1.70
2019-01-10T11:19:05.657Z,2.10
2019-01-10T11:21:32.185Z,1.73
2019-01-10T11:23:58.839Z,1.40
2019-01-10T11:26:25.455Z,1.90
2019-01-10T11:28:52.113Z,1.70
2019-01-10T11:31:18.740Z,1.87
2019-01-10T11:33:45.387Z,1.80
2019-01-10T11:36:13.025Z,1.90
2019-01-10T11:38:39.729Z,1.67
2019-01-10T11:41:06.291Z,1.60
2019-01-10T11:43:32.805Z,1.40
2019-01-10T11:45:59.385Z,1.20
2019-01-10T11:48:26.114Z,1.70
2019-01-10T11:50:52.673Z,1.40
2019-01-10T11:53:19.197Z,1.17
2019-01-10T11:55:45.853Z,1.30
2019-01-10T11:58:12.516Z,1.33
2019-01-10T12:00:39.076Z,1.43
2019-01-10T12:03:05.812Z,1.40
2019-01-10T12:05:32.458Z,1.90
2019-01-10T12:07:59.082Z,1.60
2019-01-10T12:10:25.816Z,1.70
2019-01-10T12:12:52.458Z,1.90
2019-01-10T12:15:19.158Z,2.47
2019-01-10T12:17:45.778Z,1.43
2019-01-10T12:20:15.033Z,1.53
2019-01-10T12:22:41.658Z,1.57
2019-01-10T12:25:10.315Z,1.50
2019-01-10T12:27:36.731Z,1.60
2019-01-10T12:30:07.102Z,1.30
2019-01-10T12:32:33.629Z,1.30
2019-01-10T12:35:00.273Z,1.97
2019-01-10T12:37:26.860Z,1.60
2019-01-10T12:39:53.415Z,1.30
2019-01-10T12:42:20.033Z,1.23
2019-01-10T12:44:46.681Z,1.40
2019-01-10T12:47:13.306Z,1.33
2019-01-10T12:49:39.958Z,1.63
2019-01-10T12:52:06.888Z,1.23
2019-01-10T12:54:33.747Z,1.27
2019-01-10T12:57:00.274Z,1.37
2019-01-10T12:59:28.447Z,1.40
2019-01-10T13:01:55.397Z,2.20
2019-01-10T13:04:22.173Z,1.80
2019-01-10T13:06:48.710Z,1.70
2019-01-10T13:09:15.244Z,2.57
2019-01-10T13:11:41.808Z,1.53
2019-01-10T13:14:08.430Z,1.40
2019-01-10T13:16:34.985Z,1.30
2019-01-10T13:19:01.509Z,1.00
2019-01-10T13:21:28.068Z,1.23
2019-01-10T13:23:54.594Z,1.37
2019-01-10T13:26:21.152Z,1.40
2019-01-10T13:28:49.377Z,1.50
2019-01-10T13:31:15.938Z,1.40
2019-01-10T13:33:42.570Z,1.73
2019-01-10T13:36:09.125Z,1.30
2019-01-10T13:38:35.647Z,1.30
2019-01-10T13:41:04.208Z,1.80
2019-01-10T13:43:30.838Z,1.40
2019-01-10T13:45:57.387Z,1.13
2019-01-10T13:48:24.906Z,1.20
2019-01-10T13:50:51.593Z,1.43
2019-01-10T13:53:18.190Z,1.20
2019-01-10T13:55:44.880Z,1.57
2019-01-10T13:58:11.527Z,1.40
2019-01-10T14:00:38.289Z,1.20
2019-01-10T14:03:04.919Z,1.20
2019-01-10T14:05:31.781Z,1.30
2019-01-10T14:07:58.410Z,1.23
2019-01-10T14:10:25.270Z,1.30
2019-01-10T14:12:51.825Z,1.20
2019-01-10T14:15:26.993Z,1.30
2019-01-10T14:17:53.753Z,1.60
2019-01-10T14:20:20.883Z,2.33
2019-01-10T14:22:47.439Z,2.17
2019-01-10T14:25:14.609Z,2.30
2019-01-10T14:27:41.380Z,2.13
2019-01-10T14:30:14.501Z,1.97
2019-01-10T14:32:41.851Z,2.50
2019-01-10T14:35:08.690Z,2.00
2019-01-10T14:37:35.244Z,2.00
2019-01-10T14:40:03.970Z,1.97
2019-01-10T14:42:30.547Z,1.80
2019-01-10T14:44:57.184Z,2.30
2019-01-10T14:47:23.781Z,2.37
2019-01-10T14:49:50.416Z,2.60
2019-01-10T14:52:17.084Z,2.43
2019-01-10T14:54:43.800Z,2.50
2019-01-10T14:57:10.364Z,2.50
2019-01-10T14:59:36.942Z,2.87
2019-01-10T15:02:03.599Z,4.17
2019-01-10T15:04:30.233Z,4.57
2019-01-10T15:07:00.201Z,5.73
2019-01-10T15:09:27.483Z,5.00
2019-01-10T15:11:54.142Z,4.17
2019-01-10T15:14:20.756Z,3.83
2019-01-10T15:16:47.430Z,3.60
2019-01-10T15:19:14.153Z,3.20
2019-01-10T15:21:40.929Z,2.77
2019-01-10T15:24:07.449Z,3.20
2019-01-10T15:26:34.019Z,3.13
2019-01-10T15:29:00.749Z,3.30
2019-01-10T15:31:27.319Z,3.47
2019-01-10T15:33:53.944Z,2.80
2019-01-10T15:36:20.514Z,2.90
2019-01-10T15:38:47.040Z,2.90
2019-01-10T15:41:13.717Z,2.40
2019-01-10T15:43:40.333Z,3.10
2019-01-10T15:46:07.809Z,3.23
2019-01-10T15:48:34.557Z,2.90
2019-01-10T15:51:01.866Z,3.23
2019-01-10T15:53:28.496Z,3.40
2019-01-10T15:55:55.555Z,3.73
2019-01-10T15:58:22.305Z,3.37
2019-01-10T16:00:48.929Z,3.20
2019-01-10T16:03:15.605Z,4.53
2019-01-10T16:05:42.284Z,4.13
2019-01-10T16:08:08.813Z,3.80
2019-01-10T16:10:35.389Z,4.40
2019-01-10T16:13:02.009Z,5.10
2019-01-10T16:15:28.566Z,4.43
2019-01-10T16:17:55.296Z,4.33
2019-01-10T16:20:21.964Z,4.50
2019-01-10T16:22:49.097Z,4.90
2019-01-10T16:25:17.419Z,4.97
2019-01-10T16:27:44.294Z,4.50
2019-01-10T16:30:19.724Z,5.17
2019-01-10T16:32:46.504Z,4.20
2019-01-10T16:35:14.025Z,4.30
2019-01-10T16:37:41.794Z,4.50
2019-01-10T16:40:11.005Z,4.27
2019-01-10T16:42:37.665Z,4.40
2019-01-10T16:45:08.137Z,4.37
2019-01-10T16:47:36.358Z,4.20
2019-01-10T16:50:09.517Z,3.90
2019-01-10T16:52:36.201Z,4.30
2019-01-10T16:55:04.228Z,4.67
2019-01-10T16:57:31.344Z,4.50
2019-01-10T16:59:58.028Z,3.83
2019-01-10T17:02:24.702Z,4.23
2019-01-10T17:04:51.321Z,4.33
2019-01-10T17:07:18.010Z,4.53
2019-01-10T17:09:44.636Z,4.90
2019-01-10T17:12:11.953Z,4.93
2019-01-10T17:14:38.634Z,5.30
2019-01-10T17:17:05.249Z,5.90
2019-01-10T17:19:31.911Z,5.63
2019-01-10T17:21:58.933Z,6.10
2019-01-10T17:24:25.557Z,7.57
2019-01-10T17:26:52.221Z,8.83
2019-01-10T17:29:18.810Z,7.20
2019-01-10T17:31:47.082Z,7.20
2019-01-10T17:34:14.542Z,7.10
2019-01-10T17:36:41.179Z,7.83
2019-01-10T17:39:07.945Z,7.50
2019-01-10T17:41:35.297Z,7.17
2019-01-10T17:44:02.394Z,6.17
2019-01-10T17:46:29.508Z,6.50
2019-01-10T17:48:56.037Z,6.50
2019-01-10T17:51:22.619Z,6.53
2019-01-10T17:53:49.182Z,6.47
2019-01-10T17:56:15.853Z,5.90
2019-01-10T17:58:42.372Z,6.00
2019-01-10T18:01:09.052Z,6.70
2019-01-10T18:03:40.154Z,6.13
2019-01-10T18:06:04.029Z,6.23
2019-01-10T18:08:30.815Z,6.30
2019-01-10T18:10:57.399Z,6.30
2019-01-10T18:13:24.130Z,6.27
2019-01-10T18:15:52.466Z,5.87
2019-01-10T18:18:19.010Z,6.43
2019-01-10T18:20:45.737Z,7.43
2019-01-10T18:23:12.310Z,6.20
2019-01-10T18:25:38.932Z,6.30
2019-01-10T18:28:05.752Z,5.83
2019-01-10T18:30:32.505Z,6.60
2019-01-10T18:32:59.278Z,6.40
2019-01-10T18:35:26.701Z,6.30
2019-01-10T18:37:53.580Z,6.60
2019-01-10T18:40:20.239Z,6.97
2019-01-10T18:42:46.870Z,6.87
2019-01-10T18:45:18.350Z,6.03
2019-01-10T18:47:45.013Z,7.00
2019-01-10T18:50:17.204Z,6.50
2019-01-10T18:52:44.428Z,7.40
2019-01-10T18:55:11.306Z,7.00
2019-01-10T18:57:37.977Z,7.33
2019-01-10T19:00:08.511Z,7.80
2019-01-10T19:02:35.033Z,9.10
2019-01-10T19:05:01.617Z,8.00
2019-01-10T19:07:28.142Z,7.97
2019-01-10T19:09:54.700Z,7.10
2019-01-10T19:12:21.221Z,7.70
2019-01-10T19:14:47.777Z,8.40
2019-01-10T19:17:14.449Z,8.63
2019-01-10T19:19:41.199Z,8.30
2019-01-10T19:22:08.855Z,7.77
2019-01-10T19:24:35.934Z,9.20
2019-01-10T19:27:04.051Z,8.53
2019-01-10T19:29:31.509Z,9.00
2019-01-10T19:31:58.773Z,8.27
2019-01-10T19:34:25.472Z,7.80
2019-01-10T19:36:52.156Z,8.40
2019-01-10T19:39:19.073Z,8.80
2019-01-10T19:41:47.307Z,8.17
2019-01-10T19:44:14.090Z,8.27
2019-01-10T19:46:40.612Z,9.00
2019-01-10T19:49:07.219Z,9.30
2019-01-10T19:51:33.841Z,9.53
2019-01-10T19:54:00.500Z,9.20
2019-01-10T19:56:28.749Z,11.17
2019-01-10T19:58:56.378Z,10.27
2019-01-10T20:01:24.970Z,10.70
2019-01-10T20:03:52.018Z,11.83
2019-01-10T20:06:18.732Z,11.23
2019-01-10T20:08:45.780Z,10.90
2019-01-10T20:11:12.806Z,10.50
2019-01-10T20:13:39.444Z,10.07
2019-01-10T20:16:07.156Z,11.03
2019-01-10T20:18:34.017Z,11.60
2019-01-10T20:21:02.452Z,11.43
2019-01-10T20:23:30.285Z,11.37
2019-01-10T20:25:57.352Z,12.07
2019-01-10T20:28:23.926Z,12.57
2019-01-10T20:30:51.635Z,12.93
2019-01-10T20:33:18.249Z,12.43
2019-01-10T20:35:45.322Z,11.93
2019-01-10T20:38:12.140Z,13.50
2019-01-10T20:40:38.731Z,13.30
2019-01-10T20:43:05.357Z,14.20
2019-01-10T20:45:32.060Z,15.27
2019-01-10T20:47:58.642Z,15.10
2019-01-10T20:50:25.206Z,14.70
2019-01-10T20:52:52.082Z,15.20
2019-01-10T20:55:19.432Z,14.97
2019-01-10T20:57:45.952Z,15.90
2019-01-10T21:00:25.733Z,17.00
2019-01-10T21:02:52.260Z,17.00
2019-01-10T21:05:18.998Z,18.00
2019-01-10T21:07:47.241Z,18.47
2019-01-10T21:10:17.673Z,18.40
2019-01-10T21:12:44.862Z,19.67
2019-01-10T21:15:14.297Z,19.17
2019-01-10T21:17:41.177Z,18.70
2019-01-10T21:20:08.909Z,18.40
2019-01-10T21:22:35.696Z,20.40
2019-01-10T21:25:03.619Z,20.40
2019-01-10T21:27:30.291Z,18.73
2019-01-10T21:29:56.856Z,20.23
2019-01-10T21:32:23.597Z,19.47
2019-01-10T21:34:50.218Z,18.47
2019-01-10T21:37:16.629Z,21.07
2019-01-10T21:39:43.315Z,20.03
2019-01-10T21:42:09.944Z,20.30
2019-01-10T21:44:36.669Z,18.50
2019-01-10T21:47:03.485Z,18.53
2019-01-10T21:49:30.133Z,20.27
2019-01-10T21:51:56.777Z,18.83
2019-01-10T21:54:23.498Z,20.90
2019-01-10T21:56:50.674Z,21.13
2019-01-10T21:59:17.337Z,24.10
2019-01-10T22:01:43.848Z,23.23
2019-01-10T22:04:10.418Z,24.40
2019-01-10T22:06:36.973Z,23.40
2019-01-10T22:09:06.048Z,21.80
2019-01-10T22:11:32.572Z,24.20
2019-01-10T22:13:59.129Z,21.70
2019-01-10T22:16:25.657Z,23.90
2019-01-10T22:18:52.601Z,22.10
2019-01-10T22:21:19.226Z,21.87
2019-01-10T22:23:45.884Z,21.87
2019-01-10T22:26:12.618Z,21.30
2019-01-10T22:28:40.085Z,22.43
2019-01-10T22:31:07.484Z,21.33
2019-01-10T22:33:35.798Z,18.50
2019-01-10T22:36:03.285Z,19.57
2019-01-10T22:38:30.040Z,19.23
2019-01-10T22:40:57.277Z,18.03
2019-01-10T22:43:23.937Z,18.80
2019-01-10T22:45:50.563Z,17.00
2019-01-10T22:48:17.138Z,13.50
2019-01-10T22:50:43.730Z,14.80
2019-01-10T22:53:10.486Z,16.37
2019-01-10T22:55:37.106Z,14.63
2019-01-10T22:58:03.869Z,13.07
2019-01-10T23:00:55.892Z,14.27
2019-01-10T23:03:23.640Z,16.03
2019-01-10T23:05:50.866Z,14.43
2019-01-10T23:08:18.328Z,15.63
2019-01-10T23:10:47.010Z,14.90
2019-01-10T23:13:15.281Z,15.40
2019-01-10T23:15:41.813Z,15.53
2019-01-10T23:18:08.675Z,14.13
2019-01-10T23:20:36.194Z,13.30
2019-01-10T23:23:11.357Z,11.33
2019-01-10T23:25:38.189Z,11.90
2019-01-10T23:28:05.057Z,12.23
2019-01-10T23:30:50.088Z,11.17
2019-01-10T23:33:18.228Z,11.40
2019-01-10T23:35:46.061Z,11.67
2019-01-10T23:38:12.956Z,11.47
2019-01-10T23:40:39.495Z,11.73
2019-01-10T23:43:06.029Z,12.13
2019-01-10T23:45:32.781Z,12.53
2019-01-10T23:47:59.208Z,12.90
2019-01-10T23:50:26.057Z,14.17
2019-01-10T23:52:52.582Z,13.30
2019-01-10T23:55:19.123Z,12.70
2019-01-10T23:57:45.652Z,13.30
